sensor_id;sensor_type;location;lat;lon;timestamp;pressure;altitude;pressure_sealevel;temperature;humidity
69219;BME280;56232;53.384;-2.732;2023-03-03T00:01:33;102630.58;;;5.45;39.03
69219;BME280;56232;53.384;-2.732;2023-03-03T00:03:58;102633.11;;;6.25;39.02
69219;BME280;56232;53.384;-2.732;2023-03-03T00:06:24;102635.54;;;5.92;39.12
69219;BME280;56232;53.384;-2.732;2023-03-03T00:08:49;102635.94;;;6.11;38.97
69219;BME280;56232;53.384;-2.732;2023-03-03T00:11:14;102635.82;;;6.28;38.91
69219;BME280;56232;53.384;-2.732;2023-03-03T00:13:45;102638.07;;;6.19;38.65
69219;BME280;56232;53.384;-2.732;2023-03-03T00:16:13;102635.95;;;6.50;38.65
69219;BME280;56232;53.384;-2.732;2023-03-03T00:18:35;102634.10;;;5.50;39.02
69219;BME280;56232;53.384;-2.732;2023-03-03T00:20:58;102631.94;;;6.18;39.24
69219;BME280;56232;53.384;-2.732;2023-03-03T00:23:28;102633.05;;;6.35;39.32
69219;BME280;56232;53.384;-2.732;2023-03-03T00:25:50;102637.38;;;6.40;39.16
69219;BME280;56232;53.384;-2.732;2023-03-03T00:28:22;102638.54;;;6.23;39.05
69219;BME280;56232;53.384;-2.732;2023-03-03T00:30:39;102639.26;;;6.27;39.16
69219;BME280;56232;53.384;-2.732;2023-03-03T00:33:13;102641.92;;;6.31;39.31
69219;BME280;56232;53.384;-2.732;2023-03-03T00:35:32;102642.83;;;6.26;39.32
69219;BME280;56232;53.384;-2.732;2023-03-03T00:37:57;102643.32;;;6.22;39.03
69219;BME280;56232;53.384;-2.732;2023-03-03T00:40:23;102644.77;;;6.28;39.08
69219;BME280;56232;53.384;-2.732;2023-03-03T00:42:49;102648.79;;;6.35;38.94
69219;BME280;56232;53.384;-2.732;2023-03-03T00:47:37;102648.38;;;6.37;38.63
69219;BME280;56232;53.384;-2.732;2023-03-03T00:50:16;102646.84;;;6.02;37.02
69219;BME280;56232;53.384;-2.732;2023-03-03T00:52:29;102646.08;;;5.76;37.05
69219;BME280;56232;53.384;-2.732;2023-03-03T00:54:54;102650.01;;;5.98;36.73
69219;BME280;56232;53.384;-2.732;2023-03-03T00:57:20;102645.73;;;5.26;37.78
69219;BME280;56232;53.384;-2.732;2023-03-03T00:59:46;102648.76;;;5.81;38.37
69219;BME280;56232;53.384;-2.732;2023-03-03T01:02:12;102645.72;;;5.41;38.36
69219;BME280;56232;53.384;-2.732;2023-03-03T01:04:38;102650.43;;;4.90;37.90
69219;BME280;56232;53.384;-2.732;2023-03-03T01:07:08;102652.32;;;5.39;37.70
69219;BME280;56232;53.384;-2.732;2023-03-03T01:09:29;102653.63;;;5.85;37.99
69219;BME280;56232;53.384;-2.732;2023-03-03T01:11:55;102657.31;;;5.46;38.41
69219;BME280;56232;53.384;-2.732;2023-03-03T01:14:20;102652.90;;;6.60;38.48
69219;BME280;56232;53.384;-2.732;2023-03-03T01:16:46;102650.97;;;5.43;38.46
69219;BME280;56232;53.384;-2.732;2023-03-03T01:19:12;102654.06;;;5.89;38.49
69219;BME280;56232;53.384;-2.732;2023-03-03T01:21:38;102652.88;;;5.85;37.79
69219;BME280;56232;53.384;-2.732;2023-03-03T01:24:04;102655.81;;;5.67;37.92
69219;BME280;56232;53.384;-2.732;2023-03-03T01:26:29;102657.42;;;5.21;37.86
69219;BME280;56232;53.384;-2.732;2023-03-03T01:28:55;102659.90;;;5.17;37.69
69219;BME280;56232;53.384;-2.732;2023-03-03T01:31:21;102657.70;;;5.19;38.17
69219;BME280;56232;53.384;-2.732;2023-03-03T01:33:47;102659.32;;;5.28;38.49
69219;BME280;56232;53.384;-2.732;2023-03-03T01:36:12;102661.92;;;5.49;38.77
69219;BME280;56232;53.384;-2.732;2023-03-03T01:38:39;102657.90;;;5.65;38.83
69219;BME280;56232;53.384;-2.732;2023-03-03T01:41:05;102657.94;;;6.08;38.59
69219;BME280;56232;53.384;-2.732;2023-03-03T01:43:32;102655.62;;;5.56;38.70
69219;BME280;56232;53.384;-2.732;2023-03-03T01:48:24;102652.83;;;6.04;38.31
69219;BME280;56232;53.384;-2.732;2023-03-03T01:50:49;102651.39;;;5.51;38.00
69219;BME280;56232;53.384;-2.732;2023-03-03T01:53:17;102653.81;;;5.48;38.39
69219;BME280;56232;53.384;-2.732;2023-03-03T01:55:40;102649.32;;;5.79;37.49
69219;BME280;56232;53.384;-2.732;2023-03-03T01:58:08;102652.19;;;5.48;38.05
69219;BME280;56232;53.384;-2.732;2023-03-03T02:00:31;102653.81;;;5.45;38.43
69219;BME280;56232;53.384;-2.732;2023-03-03T02:02:56;102651.50;;;5.53;37.73
69219;BME280;56232;53.384;-2.732;2023-03-03T02:05:21;102651.37;;;5.30;37.71
69219;BME280;56232;53.384;-2.732;2023-03-03T02:07:47;102650.51;;;5.76;36.91
69219;BME280;56232;53.384;-2.732;2023-03-03T02:10:15;102652.10;;;4.86;37.10
69219;BME280;56232;53.384;-2.732;2023-03-03T02:12:41;102652.92;;;5.00;37.88
69219;BME280;56232;53.384;-2.732;2023-03-03T02:15:14;102653.94;;;4.96;37.96
69219;BME280;56232;53.384;-2.732;2023-03-03T02:17:30;102651.16;;;5.51;36.86
69219;BME280;56232;53.384;-2.732;2023-03-03T02:20:02;102649.74;;;5.03;36.24
69219;BME280;56232;53.384;-2.732;2023-03-03T02:22:25;102648.89;;;4.80;36.60
69219;BME280;56232;53.384;-2.732;2023-03-03T02:24:56;102648.11;;;4.60;36.72
69219;BME280;56232;53.384;-2.732;2023-03-03T02:27:13;102644.39;;;4.53;36.94
69219;BME280;56232;53.384;-2.732;2023-03-03T02:29:39;102646.20;;;4.55;36.86
69219;BME280;56232;53.384;-2.732;2023-03-03T02:32:04;102647.57;;;4.62;37.33
69219;BME280;56232;53.384;-2.732;2023-03-03T02:34:29;102649.77;;;4.72;37.57
69219;BME280;56232;53.384;-2.732;2023-03-03T02:36:55;102652.67;;;4.84;37.60
69219;BME280;56232;53.384;-2.732;2023-03-03T02:39:24;102652.24;;;4.88;36.71
69219;BME280;56232;53.384;-2.732;2023-03-03T02:41:51;102652.17;;;4.72;36.12
69219;BME280;56232;53.384;-2.732;2023-03-03T02:44:14;102653.12;;;4.46;36.52
69219;BME280;56232;53.384;-2.732;2023-03-03T02:46:40;102653.29;;;4.32;37.12
69219;BME280;56232;53.384;-2.732;2023-03-03T02:49:05;102651.12;;;4.47;36.77
69219;BME280;56232;53.384;-2.732;2023-03-03T02:51:30;102648.69;;;4.43;37.54
69219;BME280;56232;53.384;-2.732;2023-03-03T02:53:56;102649.49;;;4.41;37.07
69219;BME280;56232;53.384;-2.732;2023-03-03T02:56:21;102650.17;;;4.33;37.00
69219;BME280;56232;53.384;-2.732;2023-03-03T02:58:46;102647.76;;;4.31;37.00
69219;BME280;56232;53.384;-2.732;2023-03-03T03:01:12;102647.87;;;5.42;37.44
69219;BME280;56232;53.384;-2.732;2023-03-03T03:03:38;102644.13;;;4.56;37.80
69219;BME280;56232;53.384;-2.732;2023-03-03T03:06:04;102643.18;;;4.58;37.23
69219;BME280;56232;53.384;-2.732;2023-03-03T03:08:30;102642.24;;;5.08;37.21
69219;BME280;56232;53.384;-2.732;2023-03-03T03:10:56;102641.66;;;4.61;37.72
69219;BME280;56232;53.384;-2.732;2023-03-03T03:13:22;102642.07;;;4.70;38.17
69219;BME280;56232;53.384;-2.732;2023-03-03T03:15:47;102639.71;;;4.98;38.17
69219;BME280;56232;53.384;-2.732;2023-03-03T03:18:13;102641.38;;;4.59;37.96
69219;BME280;56232;53.384;-2.732;2023-03-03T03:20:38;102643.32;;;5.15;38.21
69219;BME280;56232;53.384;-2.732;2023-03-03T03:23:04;102641.40;;;5.31;37.60
69219;BME280;56232;53.384;-2.732;2023-03-03T03:25:30;102641.59;;;4.26;38.13
69219;BME280;56232;53.384;-2.732;2023-03-03T03:27:56;102641.57;;;5.45;38.20
69219;BME280;56232;53.384;-2.732;2023-03-03T03:30:22;102642.29;;;4.86;38.44
69219;BME280;56232;53.384;-2.732;2023-03-03T03:32:47;102644.28;;;5.45;37.22
69219;BME280;56232;53.384;-2.732;2023-03-03T03:35:13;102644.12;;;4.30;36.90
69219;BME280;56232;53.384;-2.732;2023-03-03T03:37:39;102645.48;;;4.93;37.75
69219;BME280;56232;53.384;-2.732;2023-03-03T03:40:05;102641.78;;;5.01;37.92
69219;BME280;56232;53.384;-2.732;2023-03-03T03:42:30;102643.65;;;5.10;38.18
69219;BME280;56232;53.384;-2.732;2023-03-03T03:44:56;102645.83;;;5.23;38.22
69219;BME280;56232;53.384;-2.732;2023-03-03T03:47:21;102643.84;;;5.43;38.08
69219;BME280;56232;53.384;-2.732;2023-03-03T03:49:47;102643.24;;;4.93;38.45
69219;BME280;56232;53.384;-2.732;2023-03-03T03:52:13;102642.71;;;5.60;38.57
69219;BME280;56232;53.384;-2.732;2023-03-03T03:54:39;102643.22;;;5.10;38.71
69219;BME280;56232;53.384;-2.732;2023-03-03T03:57:04;102645.22;;;5.83;38.41
69219;BME280;56232;53.384;-2.732;2023-03-03T03:59:30;102644.69;;;4.76;38.45
69219;BME280;56232;53.384;-2.732;2023-03-03T04:01:55;102645.03;;;5.42;38.56
69219;BME280;56232;53.384;-2.732;2023-03-03T04:04:20;102648.89;;;5.39;38.36
69219;BME280;56232;53.384;-2.732;2023-03-03T04:06:46;102647.27;;;5.37;38.48
69219;BME280;56232;53.384;-2.732;2023-03-03T04:09:11;102646.24;;;5.44;38.42
69219;BME280;56232;53.384;-2.732;2023-03-03T04:11:37;102646.58;;;5.29;37.87
69219;BME280;56232;53.384;-2.732;2023-03-03T04:14:04;102644.70;;;5.71;38.16
69219;BME280;56232;53.384;-2.732;2023-03-03T04:16:29;102644.60;;;5.07;38.38
69219;BME280;56232;53.384;-2.732;2023-03-03T04:18:54;102646.49;;;5.17;38.37
69219;BME280;56232;53.384;-2.732;2023-03-03T04:21:19;102647.38;;;5.10;38.10
69219;BME280;56232;53.384;-2.732;2023-03-03T04:23:45;102650.15;;;5.19;38.54
69219;BME280;56232;53.384;-2.732;2023-03-03T04:26:10;102650.51;;;5.22;38.52
69219;BME280;56232;53.384;-2.732;2023-03-03T04:28:36;102650.10;;;5.89;38.13
69219;BME280;56232;53.384;-2.732;2023-03-03T04:31:04;102648.21;;;5.66;37.98
69219;BME280;56232;53.384;-2.732;2023-03-03T04:33:27;102648.58;;;5.46;37.80
69219;BME280;56232;53.384;-2.732;2023-03-03T04:35:53;102649.01;;;5.23;37.76
69219;BME280;56232;53.384;-2.732;2023-03-03T04:38:19;102649.23;;;4.50;37.98
69219;BME280;56232;53.384;-2.732;2023-03-03T04:40:44;102650.39;;;3.79;37.66
69219;BME280;56232;53.384;-2.732;2023-03-03T04:43:11;102649.69;;;4.87;38.30
69219;BME280;56232;53.384;-2.732;2023-03-03T04:45:36;102651.05;;;4.96;37.49
69219;BME280;56232;53.384;-2.732;2023-03-03T04:48:01;102647.77;;;4.48;36.99
69219;BME280;56232;53.384;-2.732;2023-03-03T04:50:31;102649.49;;;4.18;37.16
69219;BME280;56232;53.384;-2.732;2023-03-03T04:52:53;102652.70;;;4.14;37.49
69219;BME280;56232;53.384;-2.732;2023-03-03T04:55:17;102649.11;;;4.17;37.77
69219;BME280;56232;53.384;-2.732;2023-03-03T04:57:43;102651.70;;;4.18;37.06
69219;BME280;56232;53.384;-2.732;2023-03-03T05:00:12;102652.21;;;4.38;37.38
69219;BME280;56232;53.384;-2.732;2023-03-03T05:02:35;102656.36;;;4.35;37.92
69219;BME280;56232;53.384;-2.732;2023-03-03T05:05:02;102655.12;;;4.47;37.96
69219;BME280;56232;53.384;-2.732;2023-03-03T05:07:27;102655.92;;;5.01;37.57
69219;BME280;56232;53.384;-2.732;2023-03-03T05:09:52;102655.90;;;3.87;37.79
69219;BME280;56232;53.384;-2.732;2023-03-03T05:12:18;102657.64;;;4.97;36.62
69219;BME280;56232;53.384;-2.732;2023-03-03T05:14:44;102656.64;;;4.65;37.52
69219;BME280;56232;53.384;-2.732;2023-03-03T05:17:10;102654.81;;;3.41;37.40
69219;BME280;56232;53.384;-2.732;2023-03-03T05:19:36;102656.42;;;4.46;37.74
69219;BME280;56232;53.384;-2.732;2023-03-03T05:22:02;102657.71;;;5.03;37.06
69219;BME280;56232;53.384;-2.732;2023-03-03T05:24:27;102660.47;;;4.12;37.39
69219;BME280;56232;53.384;-2.732;2023-03-03T05:26:53;102663.56;;;3.94;38.11
69219;BME280;56232;53.384;-2.732;2023-03-03T05:29:19;102661.63;;;2.90;37.86
69219;BME280;56232;53.384;-2.732;2023-03-03T05:31:45;102663.39;;;3.36;38.07
69219;BME280;56232;53.384;-2.732;2023-03-03T05:34:10;102662.04;;;3.48;38.21
69219;BME280;56232;53.384;-2.732;2023-03-03T05:36:36;102658.19;;;4.33;38.13
69219;BME280;56232;53.384;-2.732;2023-03-03T05:39:03;102657.55;;;4.40;38.03
69219;BME280;56232;53.384;-2.732;2023-03-03T05:41:28;102656.74;;;3.36;37.58
69219;BME280;56232;53.384;-2.732;2023-03-03T05:43:54;102659.25;;;3.86;37.77
69219;BME280;56232;53.384;-2.732;2023-03-03T05:46:20;102663.50;;;3.80;38.19
69219;BME280;56232;53.384;-2.732;2023-03-03T05:48:45;102662.02;;;4.39;37.68
69219;BME280;56232;53.384;-2.732;2023-03-03T05:51:11;102662.11;;;4.54;37.90
69219;BME280;56232;53.384;-2.732;2023-03-03T05:53:37;102660.39;;;4.68;38.15
69219;BME280;56232;53.384;-2.732;2023-03-03T05:56:03;102658.57;;;4.17;37.82
69219;BME280;56232;53.384;-2.732;2023-03-03T05:58:28;102660.31;;;3.75;38.22
69219;BME280;56232;53.384;-2.732;2023-03-03T06:00:54;102661.49;;;4.00;38.03
69219;BME280;56232;53.384;-2.732;2023-03-03T06:03:20;102656.38;;;4.18;37.40
69219;BME280;56232;53.384;-2.732;2023-03-03T06:05:46;102662.93;;;4.06;36.87
69219;BME280;56232;53.384;-2.732;2023-03-03T06:08:11;102661.56;;;4.35;37.45
69219;BME280;56232;53.384;-2.732;2023-03-03T06:10:37;102662.32;;;4.47;37.47
69219;BME280;56232;53.384;-2.732;2023-03-03T06:13:04;102668.06;;;5.12;37.57
69219;BME280;56232;53.384;-2.732;2023-03-03T06:15:29;102669.06;;;4.00;37.93
69219;BME280;56232;53.384;-2.732;2023-03-03T06:17:55;102668.43;;;4.04;38.00
69219;BME280;56232;53.384;-2.732;2023-03-03T06:20:21;102669.56;;;4.29;38.03
69219;BME280;56232;53.384;-2.732;2023-03-03T06:22:46;102668.63;;;4.22;37.65
69219;BME280;56232;53.384;-2.732;2023-03-03T06:25:12;102671.62;;;4.67;38.18
69219;BME280;56232;53.384;-2.732;2023-03-03T06:27:37;102666.05;;;4.91;38.58
69219;BME280;56232;53.384;-2.732;2023-03-03T06:30:04;102665.03;;;4.61;38.19
69219;BME280;56232;53.384;-2.732;2023-03-03T06:32:34;102663.53;;;4.48;37.55
69219;BME280;56232;53.384;-2.732;2023-03-03T06:34:54;102669.84;;;3.83;37.90
69219;BME280;56232;53.384;-2.732;2023-03-03T06:37:20;102666.48;;;3.86;37.56
69219;BME280;56232;53.384;-2.732;2023-03-03T06:39:46;102672.15;;;5.35;37.97
69219;BME280;56232;53.384;-2.732;2023-03-03T06:42:12;102674.29;;;5.46;38.32
69219;BME280;56232;53.384;-2.732;2023-03-03T06:44:38;102677.66;;;5.52;38.60
69219;BME280;56232;53.384;-2.732;2023-03-03T06:47:04;102677.02;;;4.69;38.76
69219;BME280;56232;53.384;-2.732;2023-03-03T06:49:29;102675.08;;;4.82;38.32
69219;BME280;56232;53.384;-2.732;2023-03-03T06:51:56;102676.09;;;4.89;38.12
69219;BME280;56232;53.384;-2.732;2023-03-03T06:54:27;102678.41;;;5.00;37.82
69219;BME280;56232;53.384;-2.732;2023-03-03T06:56:48;102683.36;;;3.93;37.88
69219;BME280;56232;53.384;-2.732;2023-03-03T06:59:14;102684.11;;;4.96;38.12
69219;BME280;56232;53.384;-2.732;2023-03-03T07:01:39;102686.15;;;5.13;38.13
69219;BME280;56232;53.384;-2.732;2023-03-03T07:04:11;102687.28;;;5.14;38.13
69219;BME280;56232;53.384;-2.732;2023-03-03T07:06:31;102693.06;;;5.24;37.68
69219;BME280;56232;53.384;-2.732;2023-03-03T07:08:56;102695.00;;;4.71;37.97
69219;BME280;56232;53.384;-2.732;2023-03-03T07:11:23;102698.07;;;5.38;37.49
69219;BME280;56232;53.384;-2.732;2023-03-03T07:13:49;102703.73;;;4.70;37.68
69219;BME280;56232;53.384;-2.732;2023-03-03T07:16:16;102704.38;;;4.56;37.39
69219;BME280;56232;53.384;-2.732;2023-03-03T07:18:45;102706.05;;;5.15;37.14
69219;BME280;56232;53.384;-2.732;2023-03-03T07:21:13;102707.88;;;5.50;37.41
69219;BME280;56232;53.384;-2.732;2023-03-03T07:23:34;102709.72;;;5.05;37.57
69219;BME280;56232;53.384;-2.732;2023-03-03T07:25:57;102709.09;;;5.05;37.46
69219;BME280;56232;53.384;-2.732;2023-03-03T07:28:25;102712.91;;;4.47;37.29
69219;BME280;56232;53.384;-2.732;2023-03-03T07:30:48;102716.31;;;5.17;36.19
69219;BME280;56232;53.384;-2.732;2023-03-03T07:33:22;102722.33;;;4.64;36.26
69219;BME280;56232;53.384;-2.732;2023-03-03T07:35:42;102723.03;;;4.51;36.87
69219;BME280;56232;53.384;-2.732;2023-03-03T07:38:15;102725.55;;;4.92;35.71
69219;BME280;56232;53.384;-2.732;2023-03-03T07:40:36;102729.43;;;5.21;36.32
69219;BME280;56232;53.384;-2.732;2023-03-03T07:42:57;102726.38;;;4.02;36.82
69219;BME280;56232;53.384;-2.732;2023-03-03T07:45:27;102723.68;;;4.13;36.95
69219;BME280;56232;53.384;-2.732;2023-03-03T07:47:49;102726.89;;;4.29;36.99
69219;BME280;56232;53.384;-2.732;2023-03-03T07:50:18;102728.43;;;5.63;37.51
69219;BME280;56232;53.384;-2.732;2023-03-03T07:52:43;102729.29;;;4.77;37.17
69219;BME280;56232;53.384;-2.732;2023-03-03T07:55:19;102730.99;;;5.00;37.61
69219;BME280;56232;53.384;-2.732;2023-03-03T07:57:35;102727.79;;;4.32;36.84
69219;BME280;56232;53.384;-2.732;2023-03-03T08:00:03;102730.22;;;4.98;36.83
69219;BME280;56232;53.384;-2.732;2023-03-03T08:02:34;102730.28;;;5.17;36.92
69219;BME280;56232;53.384;-2.732;2023-03-03T08:04:50;102730.75;;;4.98;36.58
69219;BME280;56232;53.384;-2.732;2023-03-03T08:07:16;102731.63;;;6.21;36.99
69219;BME280;56232;53.384;-2.732;2023-03-03T08:09:43;102732.17;;;5.78;36.68
69219;BME280;56232;53.384;-2.732;2023-03-03T08:12:24;102731.58;;;5.94;36.97
69219;BME280;56232;53.384;-2.732;2023-03-03T08:14:34;102733.96;;;6.83;36.32
69219;BME280;56232;53.384;-2.732;2023-03-03T08:16:59;102738.05;;;5.64;35.95
69219;BME280;56232;53.384;-2.732;2023-03-03T08:19:25;102736.45;;;5.97;36.06
69219;BME280;56232;53.384;-2.732;2023-03-03T08:21:50;102736.76;;;6.15;35.99
69219;BME280;56232;53.384;-2.732;2023-03-03T08:24:16;102740.94;;;5.72;35.86
69219;BME280;56232;53.384;-2.732;2023-03-03T08:26:41;102742.65;;;5.31;35.64
69219;BME280;56232;53.384;-2.732;2023-03-03T08:29:07;102750.48;;;5.39;34.97
69219;BME280;56232;53.384;-2.732;2023-03-03T08:31:33;102754.29;;;5.12;35.63
69219;BME280;56232;53.384;-2.732;2023-03-03T08:33:59;102756.41;;;5.45;36.06
69219;BME280;56232;53.384;-2.732;2023-03-03T08:36:25;102761.28;;;6.08;36.03
69219;BME280;56232;53.384;-2.732;2023-03-03T08:38:50;102765.84;;;5.25;35.33
69219;BME280;56232;53.384;-2.732;2023-03-03T08:41:16;102772.99;;;5.36;36.14
69219;BME280;56232;53.384;-2.732;2023-03-03T08:43:42;102772.78;;;5.44;36.43
69219;BME280;56232;53.384;-2.732;2023-03-03T08:46:08;102770.25;;;5.84;35.91
69219;BME280;56232;53.384;-2.732;2023-03-03T08:48:37;102773.23;;;5.64;35.90
69219;BME280;56232;53.384;-2.732;2023-03-03T08:51:00;102771.26;;;6.37;35.53
69219;BME280;56232;53.384;-2.732;2023-03-03T08:53:26;102776.00;;;6.86;35.29
69219;BME280;56232;53.384;-2.732;2023-03-03T08:55:51;102781.23;;;6.57;34.32
69219;BME280;56232;53.384;-2.732;2023-03-03T08:58:19;102775.37;;;6.40;34.53
69219;BME280;56232;53.384;-2.732;2023-03-03T09:00:44;102774.28;;;6.17;34.22
69219;BME280;56232;53.384;-2.732;2023-03-03T09:03:08;102775.40;;;6.97;34.23
69219;BME280;56232;53.384;-2.732;2023-03-03T09:05:36;102776.81;;;5.81;34.78
69219;BME280;56232;53.384;-2.732;2023-03-03T09:08:01;102775.81;;;5.53;35.25
69219;BME280;56232;53.384;-2.732;2023-03-03T09:10:27;102780.29;;;6.82;35.23
69219;BME280;56232;53.384;-2.732;2023-03-03T09:12:51;102777.10;;;6.29;35.14
69219;BME280;56232;53.384;-2.732;2023-03-03T09:15:21;102774.98;;;5.46;35.55
69219;BME280;56232;53.384;-2.732;2023-03-03T09:17:42;102776.57;;;5.94;35.90
69219;BME280;56232;53.384;-2.732;2023-03-03T09:22:35;102776.17;;;6.56;35.28
69219;BME280;56232;53.384;-2.732;2023-03-03T09:25:01;102773.47;;;6.08;35.54
69219;BME280;56232;53.384;-2.732;2023-03-03T09:27:28;102777.47;;;6.47;35.05
69219;BME280;56232;53.384;-2.732;2023-03-03T09:29:51;102777.54;;;6.92;35.20
69219;BME280;56232;53.384;-2.732;2023-03-03T09:32:26;102776.42;;;6.89;35.06
69219;BME280;56232;53.384;-2.732;2023-03-03T09:34:44;102776.11;;;7.30;34.47
69219;BME280;56232;53.384;-2.732;2023-03-03T09:37:19;102776.58;;;6.81;34.43
69219;BME280;56232;53.384;-2.732;2023-03-03T09:39:35;102774.46;;;7.11;34.17
69219;BME280;56232;53.384;-2.732;2023-03-03T09:42:15;102777.31;;;6.97;34.33
69219;BME280;56232;53.384;-2.732;2023-03-03T09:47:03;102775.33;;;6.90;34.58
69219;BME280;56232;53.384;-2.732;2023-03-03T09:49:24;102780.15;;;6.97;34.52
69219;BME280;56232;53.384;-2.732;2023-03-03T09:51:55;102781.18;;;6.56;34.56
69219;BME280;56232;53.384;-2.732;2023-03-03T09:54:17;102779.34;;;6.95;34.42
69219;BME280;56232;53.384;-2.732;2023-03-03T09:56:39;102779.01;;;7.45;34.71
69219;BME280;56232;53.384;-2.732;2023-03-03T09:59:11;102782.00;;;6.32;34.82
69219;BME280;56232;53.384;-2.732;2023-03-03T10:01:39;102783.70;;;6.57;34.59
69219;BME280;56232;53.384;-2.732;2023-03-03T10:04:05;102788.35;;;6.33;34.69
69219;BME280;56232;53.384;-2.732;2023-03-03T10:06:22;102786.87;;;6.44;35.43
69219;BME280;56232;53.384;-2.732;2023-03-03T10:08:54;102787.37;;;5.60;34.83
69219;BME280;56232;53.384;-2.732;2023-03-03T10:11:17;102789.24;;;5.90;34.95
69219;BME280;56232;53.384;-2.732;2023-03-03T10:13:46;102791.31;;;6.32;35.55
69219;BME280;56232;53.384;-2.732;2023-03-03T10:16:10;102791.88;;;6.17;35.21
69219;BME280;56232;53.384;-2.732;2023-03-03T10:18:29;102791.34;;;5.72;35.85
69219;BME280;56232;53.384;-2.732;2023-03-03T10:21:01;102788.48;;;5.73;36.34
69219;BME280;56232;53.384;-2.732;2023-03-03T10:23:23;102788.76;;;5.24;36.07
69219;BME280;56232;53.384;-2.732;2023-03-03T10:25:52;102791.71;;;5.86;36.17
69219;BME280;56232;53.384;-2.732;2023-03-03T10:28:19;102792.78;;;5.42;35.91
69219;BME280;56232;53.384;-2.732;2023-03-03T10:30:42;102794.87;;;6.13;35.71
69219;BME280;56232;53.384;-2.732;2023-03-03T10:33:06;102790.57;;;6.05;35.75
69219;BME280;56232;53.384;-2.732;2023-03-03T10:38:04;102794.95;;;7.08;34.90
69219;BME280;56232;53.384;-2.732;2023-03-03T10:40:24;102793.92;;;7.70;34.62
69219;BME280;56232;53.384;-2.732;2023-03-03T10:42:56;102793.68;;;8.18;34.14
69219;BME280;56232;53.384;-2.732;2023-03-03T10:47:48;102795.10;;;7.34;33.49
69219;BME280;56232;53.384;-2.732;2023-03-03T10:50:12;102794.35;;;8.17;33.89
69219;BME280;56232;53.384;-2.732;2023-03-03T10:52:34;102797.22;;;6.71;34.51
69219;BME280;56232;53.384;-2.732;2023-03-03T10:55:07;102795.17;;;7.34;32.83
69219;BME280;56232;53.384;-2.732;2023-03-03T10:57:23;102802.17;;;6.45;33.52
69219;BME280;56232;53.384;-2.732;2023-03-03T10:59:54;102803.66;;;6.66;33.16
69219;BME280;56232;53.384;-2.732;2023-03-03T11:02:16;102803.66;;;6.91;34.14
69219;BME280;56232;53.384;-2.732;2023-03-03T11:04:45;102806.36;;;7.00;32.77
69219;BME280;56232;53.384;-2.732;2023-03-03T11:07:08;102805.73;;;7.14;32.09
69219;BME280;56232;53.384;-2.732;2023-03-03T11:09:42;102803.43;;;7.48;32.66
69219;BME280;56232;53.384;-2.732;2023-03-03T11:11:59;102804.40;;;7.48;32.15
69219;BME280;56232;53.384;-2.732;2023-03-03T11:14:25;102805.70;;;7.30;33.28
69219;BME280;56232;53.384;-2.732;2023-03-03T11:16:54;102805.55;;;6.93;33.42
69219;BME280;56232;53.384;-2.732;2023-03-03T11:19:24;102807.85;;;6.72;33.58
69219;BME280;56232;53.384;-2.732;2023-03-03T11:21:42;102817.18;;;6.63;33.95
69219;BME280;56232;53.384;-2.732;2023-03-03T11:29:06;102821.43;;;7.07;34.36
69219;BME280;56232;53.384;-2.732;2023-03-03T11:31:26;102817.70;;;6.54;33.93
69219;BME280;56232;53.384;-2.732;2023-03-03T11:33:53;102816.35;;;7.53;34.35
69219;BME280;56232;53.384;-2.732;2023-03-03T11:36:17;102820.60;;;6.74;34.09
69219;BME280;56232;53.384;-2.732;2023-03-03T11:38:46;102823.33;;;7.31;34.42
69219;BME280;56232;53.384;-2.732;2023-03-03T11:41:10;102821.46;;;6.83;34.43
69219;BME280;56232;53.384;-2.732;2023-03-03T11:43:33;102823.68;;;6.72;34.66
69219;BME280;56232;53.384;-2.732;2023-03-03T11:45:57;102822.37;;;6.82;33.48
69219;BME280;56232;53.384;-2.732;2023-03-03T11:48:26;102821.52;;;6.94;33.45
69219;BME280;56232;53.384;-2.732;2023-03-03T11:50:54;102824.42;;;7.20;34.12
69219;BME280;56232;53.384;-2.732;2023-03-03T11:53:23;102822.14;;;7.19;32.76
69219;BME280;56232;53.384;-2.732;2023-03-03T11:55:40;102824.68;;;6.69;33.88
69219;BME280;56232;53.384;-2.732;2023-03-03T11:58:11;102828.24;;;7.96;34.38
69219;BME280;56232;53.384;-2.732;2023-03-03T12:00:33;102826.80;;;8.14;33.41
69219;BME280;56232;53.384;-2.732;2023-03-03T12:05:28;102826.89;;;7.48;33.71
69219;BME280;56232;53.384;-2.732;2023-03-03T12:07:53;102824.27;;;7.34;33.10
69219;BME280;56232;53.384;-2.732;2023-03-03T12:10:19;102824.34;;;7.53;33.24
69219;BME280;56232;53.384;-2.732;2023-03-03T12:12:42;102822.24;;;6.82;32.68
69219;BME280;56232;53.384;-2.732;2023-03-03T12:15:12;102815.01;;;8.02;32.13
69219;BME280;56232;53.384;-2.732;2023-03-03T12:17:47;102813.69;;;7.22;32.60
69219;BME280;56232;53.384;-2.732;2023-03-03T12:19:59;102811.13;;;8.33;32.88
69219;BME280;56232;53.384;-2.732;2023-03-03T12:22:29;102806.91;;;8.07;32.38
69219;BME280;56232;53.384;-2.732;2023-03-03T12:24:59;102804.92;;;7.88;31.68
69219;BME280;56232;53.384;-2.732;2023-03-03T12:27:20;102806.57;;;7.52;32.11
69219;BME280;56232;53.384;-2.732;2023-03-03T12:29:41;102805.77;;;8.60;32.32
69219;BME280;56232;53.384;-2.732;2023-03-03T12:32:15;102803.48;;;9.49;32.54
69219;BME280;56232;53.384;-2.732;2023-03-03T12:34:34;102801.70;;;7.82;31.55
69219;BME280;56232;53.384;-2.732;2023-03-03T12:37:03;102803.90;;;8.29;32.56
69219;BME280;56232;53.384;-2.732;2023-03-03T12:39:31;102800.49;;;8.71;32.62
69219;BME280;56232;53.384;-2.732;2023-03-03T12:41:51;102801.07;;;8.82;33.12
69219;BME280;56232;53.384;-2.732;2023-03-03T12:44:17;102800.45;;;8.38;33.18
69219;BME280;56232;53.384;-2.732;2023-03-03T12:46:44;102799.39;;;8.54;32.98
69219;BME280;56232;53.384;-2.732;2023-03-03T12:49:04;102795.28;;;8.58;33.07
69219;BME280;56232;53.384;-2.732;2023-03-03T12:51:37;102799.18;;;9.09;33.40
69219;BME280;56232;53.384;-2.732;2023-03-03T12:54:06;102799.21;;;8.28;33.57
69219;BME280;56232;53.384;-2.732;2023-03-03T12:56:27;102800.25;;;9.40;31.97
69219;BME280;56232;53.384;-2.732;2023-03-03T12:58:53;102798.64;;;8.62;32.04
69219;BME280;56232;53.384;-2.732;2023-03-03T13:01:23;102795.89;;;8.55;32.85
69219;BME280;56232;53.384;-2.732;2023-03-03T13:03:43;102797.28;;;8.85;32.53